Partizansk, Russia
Current Conditions -  °F | °C
As of 8:00 AM on Monday 22 Dec 2014 (Local Time) from UHWW Reporting Station
Overcast Overcast  
Wind Chill: -4°   Ceiling: 10000
Heat Index: -4°   Visibility: 6mi
Dew Point: -11°   Wind: 2mph
Humidity: 71%   Direction: NA
Pressure: 29.88"   Gusts: NA
Location:  43.13°N, 133.13°E
Report Text: UHWW 212200Z VRB01MPS 9999 OVC100 M20/M24 Q1012 NOSIG RMKQFE757/1010 25CLRD60
Loading
Personal Weather Stations






























Interactive Weather Map New forecast layout! Learn more

10-Day Weather Forecast

Advertisements
Track Severe Weather on mobile